createdAt,value
2019-03-18T00:00:27.022Z,98315.90
2019-03-18T00:02:55.029Z,98321.36
2019-03-18T00:05:24.695Z,98320.59
2019-03-18T00:07:52.760Z,98321.66
2019-03-18T00:10:20.838Z,98314.30
2019-03-18T00:12:51.894Z,98319.05
2019-03-18T00:15:19.341Z,98315.66
2019-03-18T00:17:47.466Z,98311.45
2019-03-18T00:20:15.795Z,98311.84
2019-03-18T00:22:45.246Z,98311.39
2019-03-18T00:25:13.458Z,98314.83
2019-03-18T00:27:41.987Z,98313.41
2019-03-18T00:30:13.057Z,98305.77
2019-03-18T00:32:41.149Z,98301.11
2019-03-18T00:35:09.210Z,98305.83
2019-03-18T00:37:37.199Z,98304.13
2019-03-18T00:40:05.846Z,98304.43
2019-03-18T00:42:33.923Z,98305.90
2019-03-18T00:45:14.066Z,98301.92
2019-03-18T00:47:32.659Z,98301.68
2019-03-18T00:50:00.733Z,98294.13
2019-03-18T00:52:30.132Z,98300.25
2019-03-18T00:54:58.730Z,98297.16
2019-03-18T00:57:26.789Z,98301.17
2019-03-18T00:59:54.935Z,98293.43
2019-03-18T01:02:22.891Z,98298.17
2019-03-18T01:04:52.395Z,98290.87
2019-03-18T01:07:20.490Z,98295.57
2019-03-18T01:09:49.207Z,98289.40
2019-03-18T01:12:17.335Z,98286.77
2019-03-18T01:14:46.167Z,98287.27
2019-03-18T01:17:14.705Z,98284.03
2019-03-18T01:19:42.809Z,98289.41
2019-03-18T01:22:11.051Z,98290.15
2019-03-18T01:24:39.650Z,98293.27
2019-03-18T01:27:07.772Z,98299.58
2019-03-18T01:29:35.790Z,98298.31
2019-03-18T01:32:04.073Z,98301.37
2019-03-18T01:34:32.110Z,98302.84
2019-03-18T01:37:02.017Z,98301.02
2019-03-18T01:39:30.054Z,98302.09
2019-03-18T01:41:58.229Z,98301.14
2019-03-18T01:44:26.208Z,98295.23
2019-03-18T01:46:54.231Z,98295.23
2019-03-18T01:49:22.209Z,98294.92
2019-03-18T01:51:50.348Z,98296.19
2019-03-18T01:54:18.306Z,98293.97
2019-03-18T01:56:46.490Z,98297.78
2019-03-18T01:59:15.210Z,98294.16
2019-03-18T02:01:43.238Z,98294.23
2019-03-18T02:04:11.248Z,98298.10
2019-03-18T02:06:39.551Z,98296.61
2019-03-18T02:09:07.557Z,98297.88
2019-03-18T02:11:36.651Z,98298.77
2019-03-18T02:14:04.896Z,98308.37
2019-03-18T02:16:33.135Z,98303.98
2019-03-18T02:19:01.257Z,98300.92
2019-03-18T02:21:29.243Z,98293.59
2019-03-18T02:23:57.248Z,98299.77
2019-03-18T02:26:25.324Z,98294.81
2019-03-18T02:28:53.944Z,98297.75
2019-03-18T02:31:22.041Z,98299.64
2019-03-18T02:33:50.139Z,98300.42
2019-03-18T02:36:18.117Z,98297.88
2019-03-18T02:38:46.849Z,98294.87
2019-03-18T02:41:15.428Z,98295.96
2019-03-18T02:43:43.620Z,98305.56
2019-03-18T02:46:12.916Z,98307.72
2019-03-18T02:48:40.892Z,98307.80
2019-03-18T02:51:09.339Z,98299.59
2019-03-18T02:53:37.693Z,98302.89
2019-03-18T02:56:05.676Z,98303.33
2019-03-18T02:58:33.871Z,98303.98
2019-03-18T03:01:02.073Z,98304.86
2019-03-18T03:03:30.045Z,98306.12
2019-03-18T03:05:58.075Z,98309.23
2019-03-18T03:08:26.185Z,98306.83
2019-03-18T03:10:54.286Z,98302.14
2019-03-18T03:13:22.312Z,98307.01
2019-03-18T03:15:50.328Z,98315.16
2019-03-18T03:18:18.399Z,98315.55
2019-03-18T03:20:46.563Z,98312.73
2019-03-18T03:23:14.792Z,98315.28
2019-03-18T03:25:43.058Z,98326.02
2019-03-18T03:28:11.133Z,98319.84
2019-03-18T03:30:41.896Z,98324.70
2019-03-18T03:33:10.475Z,98332.97
2019-03-18T03:35:38.973Z,98330.94
2019-03-18T03:38:07.247Z,98340.16
2019-03-18T03:40:35.543Z,98334.11
2019-03-18T03:43:03.873Z,98326.34
2019-03-18T03:45:31.913Z,98334.05
2019-03-18T03:48:00.157Z,98326.59
2019-03-18T03:50:28.141Z,98329.19
2019-03-18T03:52:56.456Z,98334.48
2019-03-18T03:55:24.742Z,98337.06
2019-03-18T03:57:52.779Z,98346.53
2019-03-18T04:00:20.803Z,98342.33
2019-03-18T04:02:48.887Z,98343.99
2019-03-18T04:05:17.244Z,98350.62
2019-03-18T04:07:45.401Z,98349.08
2019-03-18T04:10:14.100Z,98354.02
2019-03-18T04:12:42.135Z,98354.08
2019-03-18T04:15:11.531Z,98362.05
2019-03-18T04:17:39.600Z,98360.09
2019-03-18T04:20:08.521Z,98363.41
2019-03-18T04:22:36.565Z,98357.16
2019-03-18T04:25:05.072Z,98359.12
2019-03-18T04:27:33.330Z,98361.36
2019-03-18T04:30:02.480Z,98358.34
2019-03-18T04:32:30.601Z,98364.13
2019-03-18T04:34:58.929Z,98364.20
2019-03-18T04:37:27.205Z,98371.08
2019-03-18T04:39:55.238Z,98368.25
2019-03-18T04:42:23.643Z,98375.38
2019-03-18T04:44:52.170Z,98381.12
2019-03-18T04:47:20.312Z,98368.89
2019-03-18T04:49:48.486Z,98374.81
2019-03-18T04:52:17.159Z,98381.62
2019-03-18T04:54:46.077Z,98378.30
2019-03-18T04:57:14.280Z,98379.77
2019-03-18T04:59:42.257Z,98389.91
2019-03-18T05:02:10.286Z,98381.88
2019-03-18T05:04:38.554Z,98382.53
2019-03-18T05:07:06.619Z,98385.23
2019-03-18T05:09:34.622Z,98383.19
2019-03-18T05:12:02.640Z,98382.88
2019-03-18T05:14:32.197Z,98387.01
2019-03-18T05:17:01.787Z,98395.88
2019-03-18T05:19:31.696Z,98397.02
2019-03-18T05:21:59.975Z,98393.85
2019-03-18T05:24:28.373Z,98399.56
2019-03-18T05:26:57.132Z,98404.52
2019-03-18T05:29:25.593Z,98409.22
2019-03-18T05:31:54.044Z,98409.03
2019-03-18T05:34:22.122Z,98415.01
2019-03-18T05:36:50.898Z,98396.26
2019-03-18T05:39:19.589Z,98396.56
2019-03-18T05:41:48.216Z,98411.06
2019-03-18T05:44:16.620Z,98413.73
2019-03-18T05:46:44.828Z,98412.86
2019-03-18T05:49:14.547Z,98418.83
2019-03-18T05:51:42.595Z,98425.84
2019-03-18T05:54:11.119Z,98432.46
2019-03-18T05:56:42.787Z,98433.66
2019-03-18T05:59:10.847Z,98438.62
2019-03-18T06:01:38.926Z,98435.95
2019-03-18T06:04:08.256Z,98445.42
2019-03-18T06:06:36.423Z,98445.93
2019-03-18T06:09:06.270Z,98451.63
2019-03-18T06:11:34.818Z,98451.00
2019-03-18T06:14:03.193Z,98456.91
2019-03-18T06:16:31.775Z,98457.92
2019-03-18T06:19:00.382Z,98469.70
2019-03-18T06:21:28.982Z,98473.75
2019-03-18T06:23:57.412Z,98486.19
2019-03-18T06:26:27.784Z,98496.80
2019-03-18T06:28:56.960Z,98502.71
2019-03-18T06:31:25.215Z,98493.79
2019-03-18T06:33:53.597Z,98495.75
2019-03-18T06:36:21.769Z,98507.98
2019-03-18T06:38:49.878Z,98504.31
2019-03-18T06:41:17.955Z,98514.59
2019-03-18T06:43:47.419Z,98517.89
2019-03-18T06:46:15.566Z,98522.24
2019-03-18T06:48:43.559Z,98530.89
2019-03-18T06:51:11.705Z,98534.23
2019-03-18T06:53:40.322Z,98536.36
2019-03-18T06:56:08.866Z,98538.95
2019-03-18T06:58:37.018Z,98536.97
2019-03-18T07:01:05.116Z,98533.95
2019-03-18T07:03:35.464Z,98537.67
2019-03-18T07:06:03.603Z,98544.41
2019-03-18T07:08:31.644Z,98551.32
2019-03-18T07:11:00.026Z,98550.14
2019-03-18T07:13:30.323Z,98551.02
2019-03-18T07:16:00.123Z,98558.78
2019-03-18T07:18:28.935Z,98562.61
2019-03-18T07:20:57.399Z,98564.34
2019-03-18T07:23:25.730Z,98565.11
2019-03-18T07:25:53.762Z,98565.28
2019-03-18T07:28:21.886Z,98566.30
2019-03-18T07:30:49.985Z,98570.60
2019-03-18T07:33:18.035Z,98565.13
2019-03-18T07:35:46.063Z,98574.22
2019-03-18T07:38:14.317Z,98565.82
2019-03-18T07:40:42.347Z,98578.30
2019-03-18T07:43:10.416Z,98580.46
2019-03-18T07:45:38.487Z,98585.06
2019-03-18T07:48:06.807Z,98585.91
2019-03-18T07:50:35.327Z,98589.89
2019-03-18T07:53:03.300Z,98591.84
2019-03-18T07:55:32.133Z,98596.00
2019-03-18T07:58:01.331Z,98591.10
2019-03-18T08:00:29.325Z,98589.98
2019-03-18T08:02:57.696Z,98599.13
2019-03-18T08:05:26.185Z,98606.52
2019-03-18T08:07:54.236Z,98598.83
2019-03-18T08:10:22.253Z,98611.11
2019-03-18T08:12:51.484Z,98609.73
2019-03-18T08:15:19.612Z,98608.29
2019-03-18T08:17:48.073Z,98607.01
2019-03-18T08:20:16.378Z,98615.42
2019-03-18T08:22:44.807Z,98622.80
2019-03-18T08:25:12.777Z,98625.98
2019-03-18T08:27:42.438Z,98624.09
2019-03-18T08:30:10.852Z,98628.14
2019-03-18T08:32:39.234Z,98637.02
2019-03-18T08:35:09.653Z,98636.75
2019-03-18T08:37:37.819Z,98649.86
2019-03-18T08:40:06.743Z,98662.55
2019-03-18T08:42:35.040Z,98648.59
2019-03-18T08:45:03.927Z,98657.00
2019-03-18T08:47:32.131Z,98665.22
2019-03-18T08:50:00.348Z,98662.62
2019-03-18T08:52:28.849Z,98661.39
2019-03-18T08:54:57.248Z,98658.61
2019-03-18T08:57:25.330Z,98661.25
2019-03-18T08:59:53.361Z,98661.53
2019-03-18T09:02:22.204Z,98656.64
2019-03-18T09:04:50.434Z,98655.08
2019-03-18T09:07:19.737Z,98652.35
2019-03-18T09:09:47.872Z,98653.98
2019-03-18T09:12:17.264Z,98658.89
2019-03-18T09:14:45.241Z,98656.25
2019-03-18T09:17:13.653Z,98656.57
2019-03-18T09:19:42.338Z,98659.05
2019-03-18T09:22:10.659Z,98658.29
2019-03-18T09:24:38.696Z,98657.56
2019-03-18T09:27:07.991Z,98658.67
2019-03-18T09:29:36.493Z,98648.16
2019-03-18T09:32:04.542Z,98659.73
2019-03-18T09:34:32.508Z,98656.59
2019-03-18T09:37:00.828Z,98658.83
2019-03-18T09:39:28.829Z,98655.84
2019-03-18T09:41:57.175Z,98657.90
2019-03-18T09:44:25.206Z,98661.38
2019-03-18T09:46:53.249Z,98659.84
2019-03-18T09:49:22.262Z,98661.17
2019-03-18T09:51:50.484Z,98672.94
2019-03-18T09:54:18.943Z,98665.94
2019-03-18T09:56:47.089Z,98670.66
2019-03-18T09:59:18.485Z,98662.30
2019-03-18T10:01:49.150Z,98677.27
2019-03-18T10:04:20.620Z,98663.69
2019-03-18T10:06:51.679Z,98669.47
2019-03-18T10:09:27.362Z,98673.01
2019-03-18T10:11:59.618Z,98665.59
2019-03-18T10:14:28.101Z,98670.55
2019-03-18T10:17:09.100Z,98669.89
2019-03-18T10:19:33.477Z,98668.58
2019-03-18T10:21:57.914Z,98683.36
2019-03-18T10:24:26.055Z,98682.43
2019-03-18T10:26:54.493Z,98688.36
2019-03-18T10:29:22.584Z,98664.15
2019-03-18T10:31:50.981Z,98665.36
2019-03-18T10:34:18.996Z,98669.52
2019-03-18T10:36:47.051Z,98662.05
2019-03-18T10:39:15.541Z,98670.89
2019-03-18T10:41:44.807Z,98663.72
2019-03-18T10:44:15.816Z,98668.10
2019-03-18T10:46:43.780Z,98668.14
2019-03-18T10:49:11.818Z,98676.92
2019-03-18T10:51:40.053Z,98682.80
2019-03-18T10:54:08.642Z,98678.73
2019-03-18T10:56:36.986Z,98683.88
2019-03-18T10:59:05.265Z,98685.95
2019-03-18T11:01:33.653Z,98684.65
2019-03-18T11:04:01.686Z,98683.13
2019-03-18T11:06:30.199Z,98693.00
2019-03-18T11:08:58.251Z,98704.52
2019-03-18T11:11:26.247Z,98692.47
2019-03-18T11:13:54.706Z,98699.31
2019-03-18T11:16:23.809Z,98692.50
2019-03-18T11:18:52.337Z,98692.80
2019-03-18T11:21:20.459Z,98685.55
2019-03-18T11:23:48.856Z,98691.04
2019-03-18T11:26:16.945Z,98708.31
2019-03-18T11:28:49.144Z,98699.39
2019-03-18T11:31:17.926Z,98712.68
2019-03-18T11:33:46.617Z,98698.91
2019-03-18T11:36:15.123Z,98702.30
2019-03-18T11:38:43.675Z,98698.69
2019-03-18T11:41:11.804Z,98692.69
2019-03-18T11:43:39.943Z,98697.17
2019-03-18T11:46:09.392Z,98695.51
2019-03-18T11:48:43.749Z,98688.97
2019-03-18T11:51:15.952Z,98703.22
2019-03-18T11:53:44.571Z,98689.22
2019-03-18T11:56:13.296Z,98688.84
2019-03-18T11:58:42.553Z,98674.45
2019-03-18T12:01:10.936Z,98678.91
2019-03-18T12:03:38.946Z,98685.28
2019-03-18T12:06:07.028Z,98673.65
2019-03-18T12:08:35.132Z,98679.66
2019-03-18T12:11:05.069Z,98672.56
2019-03-18T12:13:35.319Z,98665.91
2019-03-18T12:16:03.883Z,98668.83
2019-03-18T12:18:35.737Z,98668.03
2019-03-18T12:21:04.633Z,98675.16
2019-03-18T12:23:33.836Z,98668.61
2019-03-18T12:26:02.859Z,98669.73
2019-03-18T12:28:31.039Z,98671.69
2019-03-18T12:31:00.892Z,98665.00
2019-03-18T12:33:28.976Z,98663.77
2019-03-18T12:35:58.584Z,98662.63
2019-03-18T12:38:27.232Z,98656.72
2019-03-18T12:40:59.595Z,98657.08
2019-03-18T12:43:31.564Z,98657.47
2019-03-18T12:46:00.730Z,98659.56
2019-03-18T12:48:29.834Z,98657.66
2019-03-18T12:50:58.944Z,98660.33
2019-03-18T12:53:28.181Z,98645.34
2019-03-18T12:56:00.865Z,98646.26
2019-03-18T12:58:30.631Z,98641.33
2019-03-18T13:01:11.823Z,98642.98
2019-03-18T13:03:30.811Z,98644.45
2019-03-18T13:05:59.460Z,98640.10
2019-03-18T13:08:28.436Z,98635.88
2019-03-18T13:10:58.374Z,98639.27
2019-03-18T13:13:27.310Z,98644.00
2019-03-18T13:15:56.175Z,98638.23
2019-03-18T13:18:24.471Z,98654.92
2019-03-18T13:20:53.419Z,98647.81
2019-03-18T13:23:22.457Z,98650.86
2019-03-18T13:25:54.082Z,98658.23
2019-03-18T13:28:24.377Z,98648.38
2019-03-18T13:30:55.843Z,98637.36
2019-03-18T13:33:24.819Z,98638.05
2019-03-18T13:35:53.976Z,98645.45
2019-03-18T13:38:24.548Z,98650.61
2019-03-18T13:40:53.856Z,98661.22
2019-03-18T13:43:23.194Z,98667.55
2019-03-18T13:45:55.919Z,98658.38
2019-03-18T13:48:24.945Z,98665.96
2019-03-18T13:50:54.583Z,98667.11
2019-03-18T13:53:22.841Z,98660.80
2019-03-18T13:55:51.607Z,98663.01
2019-03-18T13:58:19.617Z,98659.28
2019-03-18T14:00:47.829Z,98662.80
2019-03-18T14:03:15.907Z,98657.29
2019-03-18T14:05:46.801Z,98670.57
2019-03-18T14:08:14.794Z,98680.88
2019-03-18T14:10:43.187Z,98674.45
2019-03-18T14:13:11.554Z,98673.41
2019-03-18T14:15:39.793Z,98686.23
2019-03-18T14:18:07.969Z,98677.09
2019-03-18T14:20:36.091Z,98682.55
2019-03-18T14:23:06.648Z,98687.74
2019-03-18T14:25:34.678Z,98708.23
2019-03-18T14:28:02.726Z,98724.39
2019-03-18T14:30:30.989Z,98738.35
2019-03-18T14:32:59.156Z,98751.92
2019-03-18T14:35:27.453Z,98762.60
2019-03-18T14:37:55.442Z,98756.63
2019-03-18T14:40:25.283Z,98755.88
2019-03-18T14:42:53.292Z,98747.38
2019-03-18T14:45:21.523Z,98739.70
2019-03-18T14:47:49.816Z,98735.92
2019-03-18T14:50:18.397Z,98743.47
2019-03-18T14:52:46.527Z,98743.09
2019-03-18T14:55:14.546Z,98736.85
2019-03-18T14:57:42.528Z,98737.98
2019-03-18T15:00:17.581Z,98738.80
2019-03-18T15:02:46.327Z,98736.94
2019-03-18T15:05:14.764Z,98731.81
2019-03-18T15:07:48.296Z,98721.88
2019-03-18T15:10:17.151Z,98735.64
2019-03-18T15:12:45.642Z,98725.52
2019-03-18T15:15:15.235Z,98717.12
2019-03-18T15:17:44.512Z,98718.28
2019-03-18T15:20:12.649Z,98707.18
2019-03-18T15:22:45.256Z,98708.91
2019-03-18T15:25:17.868Z,98711.45
2019-03-18T15:27:45.907Z,98713.23
2019-03-18T15:30:17.336Z,98717.83
2019-03-18T15:32:45.699Z,98717.42
2019-03-18T15:35:14.113Z,98709.73
2019-03-18T15:37:42.966Z,98712.90
2019-03-18T15:40:14.243Z,98715.05
2019-03-18T15:42:42.427Z,98721.84
2019-03-18T15:45:11.858Z,98720.98
2019-03-18T15:47:40.093Z,98723.97
2019-03-18T15:50:12.989Z,98717.91
2019-03-18T15:52:41.523Z,98717.78
2019-03-18T15:55:09.633Z,98712.19
2019-03-18T15:57:38.104Z,98719.26
2019-03-18T16:00:11.684Z,98714.06
2019-03-18T16:02:39.679Z,98722.24
2019-03-18T16:05:08.200Z,98724.11
2019-03-18T16:07:36.203Z,98723.23
2019-03-18T16:10:04.469Z,98722.98
2019-03-18T16:12:32.472Z,98715.34
2019-03-18T16:15:00.652Z,98720.98
2019-03-18T16:17:29.261Z,98726.41
2019-03-18T16:19:57.954Z,98728.66
2019-03-18T16:22:25.888Z,98733.70
2019-03-18T16:24:54.247Z,98737.03
2019-03-18T16:27:22.325Z,98738.59
2019-03-18T16:29:50.266Z,98743.17
2019-03-18T16:32:18.794Z,98743.42
2019-03-18T16:34:46.901Z,98748.05
2019-03-18T16:37:15.264Z,98743.13
2019-03-18T16:39:43.307Z,98752.55
2019-03-18T16:42:11.346Z,98759.00
2019-03-18T16:44:39.829Z,98765.35
2019-03-18T16:47:07.801Z,98770.17
2019-03-18T16:49:36.554Z,98776.59
2019-03-18T16:52:07.439Z,98770.36
2019-03-18T16:54:39.357Z,98774.59
2019-03-18T16:57:08.432Z,98777.98
2019-03-18T16:59:41.841Z,98796.01
2019-03-18T17:02:11.264Z,98799.32
2019-03-18T17:04:40.763Z,98801.67
2019-03-18T17:07:10.181Z,98803.13
2019-03-18T17:09:40.947Z,98811.00
2019-03-18T17:12:11.294Z,98821.22
2019-03-18T17:14:40.373Z,98848.00
2019-03-18T17:17:09.461Z,98855.84
2019-03-18T17:19:38.585Z,98860.70
2019-03-18T17:22:07.992Z,98863.08
2019-03-18T17:24:37.014Z,98878.45
2019-03-18T17:27:06.582Z,98886.78
2019-03-18T17:29:35.777Z,98884.55
2019-03-18T17:32:04.249Z,98880.98
2019-03-18T17:34:32.573Z,98884.67
2019-03-18T17:37:00.721Z,98890.63
2019-03-18T17:39:30.733Z,98897.08
2019-03-18T17:41:59.828Z,98908.00
2019-03-18T17:44:29.133Z,98915.34
2019-03-18T17:46:58.207Z,98915.62
2019-03-18T17:49:26.648Z,98915.34
2019-03-18T17:51:59.378Z,98910.23
2019-03-18T17:54:28.401Z,98909.30
2019-03-18T17:57:06.688Z,98909.42
2019-03-18T17:59:30.223Z,98913.08
2019-03-18T18:01:58.989Z,98912.38
2019-03-18T18:04:27.501Z,98918.60
2019-03-18T18:06:56.019Z,98915.88
2019-03-18T18:09:24.912Z,98918.84
2019-03-18T18:11:52.932Z,98923.20
2019-03-18T18:14:21.203Z,98925.30
2019-03-18T18:16:59.758Z,98928.44
2019-03-18T18:19:28.365Z,98935.52
2019-03-18T18:21:59.472Z,98932.66
2019-03-18T18:24:27.885Z,98939.83
2019-03-18T18:26:56.589Z,98936.77
2019-03-18T18:29:25.020Z,98941.05
2019-03-18T18:31:53.043Z,98945.12
2019-03-18T18:34:21.198Z,98949.31
2019-03-18T18:36:49.646Z,98946.11
2019-03-18T18:39:17.790Z,98950.77
2019-03-18T18:41:45.807Z,98952.89
2019-03-18T18:44:16.542Z,98953.61
2019-03-18T18:46:44.649Z,98950.95
2019-03-18T18:49:12.795Z,98956.17
2019-03-18T18:51:41.155Z,98956.45
2019-03-18T18:54:09.297Z,98954.77
2019-03-18T18:56:37.389Z,98960.61
2019-03-18T18:59:05.459Z,98964.11
2019-03-18T19:01:33.586Z,98963.11
2019-03-18T19:04:02.065Z,98961.14
2019-03-18T19:06:30.395Z,98970.30
2019-03-18T19:08:58.630Z,98970.80
2019-03-18T19:11:26.739Z,98967.09
2019-03-18T19:13:54.791Z,98980.08
2019-03-18T19:16:22.897Z,98982.34
2019-03-18T19:18:51.226Z,98982.75
2019-03-18T19:21:19.356Z,98985.98
2019-03-18T19:23:47.664Z,98992.40
2019-03-18T19:26:16.242Z,99020.69
2019-03-18T19:28:44.260Z,99037.83
2019-03-18T19:31:13.118Z,99041.37
2019-03-18T19:33:43.833Z,99043.47
2019-03-18T19:36:13.416Z,99046.74
2019-03-18T19:38:41.682Z,99042.16
2019-03-18T19:41:10.012Z,99051.95
2019-03-18T19:43:38.532Z,99062.30
2019-03-18T19:46:06.610Z,99063.68
2019-03-18T19:48:37.756Z,99066.27
2019-03-18T19:51:05.765Z,99066.06
2019-03-18T19:53:33.925Z,99061.11
2019-03-18T19:56:02.212Z,99062.61
2019-03-18T19:58:30.958Z,99054.20
2019-03-18T20:00:59.153Z,99046.13
2019-03-18T20:03:28.362Z,99045.62
2019-03-18T20:05:56.400Z,99044.16
2019-03-18T20:08:24.474Z,99053.77
2019-03-18T20:10:52.801Z,99058.77
2019-03-18T20:13:20.963Z,99060.80
2019-03-18T20:15:49.355Z,99057.71
2019-03-18T20:18:17.544Z,99066.13
2019-03-18T20:20:45.703Z,99059.90
2019-03-18T20:23:14.288Z,99058.19
2019-03-18T20:25:42.909Z,99047.84
2019-03-18T20:28:11.418Z,99052.98
2019-03-18T20:30:39.694Z,99050.97
2019-03-18T20:33:10.346Z,99046.45
2019-03-18T20:35:38.828Z,99048.14
2019-03-18T20:38:07.097Z,99040.56
2019-03-18T20:40:35.299Z,99053.01
2019-03-18T20:43:03.358Z,99042.88
2019-03-18T20:45:31.494Z,99044.66
2019-03-18T20:47:59.921Z,99042.84
2019-03-18T20:50:28.358Z,99044.22
2019-03-18T20:52:57.284Z,99051.98
2019-03-18T20:55:26.022Z,99055.14
2019-03-18T20:57:55.118Z,99054.66
2019-03-18T21:00:25.146Z,99052.02
2019-03-18T21:02:53.592Z,99054.66
2019-03-18T21:05:25.143Z,99054.34
2019-03-18T21:07:54.297Z,99056.56
2019-03-18T21:10:23.689Z,99066.02
2019-03-18T21:12:52.742Z,99063.14
2019-03-18T21:15:20.817Z,99061.80
2019-03-18T21:17:52.437Z,99069.40
2019-03-18T21:20:21.300Z,99068.77
2019-03-18T21:22:49.607Z,99064.14
2019-03-18T21:25:18.535Z,99064.72
2019-03-18T21:27:46.984Z,99071.89
2019-03-18T21:30:14.984Z,99081.11
2019-03-18T21:32:43.108Z,99071.21
2019-03-18T21:35:11.746Z,99066.99
2019-03-18T21:37:39.845Z,99070.52
2019-03-18T21:40:10.415Z,99073.67
2019-03-18T21:42:38.504Z,99085.27
2019-03-18T21:45:10.500Z,99085.80
2019-03-18T21:47:38.643Z,99082.48
2019-03-18T21:50:07.355Z,99077.79
2019-03-18T21:52:36.212Z,99075.17
2019-03-18T21:55:04.723Z,99085.13
2019-03-18T21:57:35.122Z,99083.95
2019-03-18T22:00:04.480Z,99081.11
2019-03-18T22:02:33.801Z,99083.98
2019-03-18T22:05:03.230Z,99087.44
2019-03-18T22:07:31.338Z,99090.05
2019-03-18T22:09:59.388Z,99085.77
2019-03-18T22:12:27.734Z,99088.17
2019-03-18T22:14:56.038Z,99096.92
2019-03-18T22:17:24.421Z,99100.41
2019-03-18T22:19:53.598Z,99101.48
2019-03-18T22:22:21.688Z,99094.10
2019-03-18T22:24:50.118Z,99087.86
2019-03-18T22:27:18.555Z,99096.88
2019-03-18T22:29:46.583Z,99098.80
2019-03-18T22:32:14.729Z,99109.32
2019-03-18T22:34:43.717Z,99106.44
2019-03-18T22:37:11.688Z,99113.55
2019-03-18T22:39:39.662Z,99101.98
2019-03-18T22:42:07.971Z,99103.73
2019-03-18T22:44:35.958Z,99106.27
2019-03-18T22:47:03.852Z,99109.13
2019-03-18T22:49:33.386Z,99107.44
2019-03-18T22:52:01.383Z,99110.09
2019-03-18T22:54:29.460Z,99109.81
2019-03-18T22:56:57.819Z,99101.61
2019-03-18T22:59:25.802Z,99109.86
2019-03-18T23:01:53.815Z,99107.95
2019-03-18T23:04:21.874Z,99113.05
2019-03-18T23:06:49.863Z,99106.77
2019-03-18T23:09:19.695Z,99105.80
2019-03-18T23:11:48.052Z,99104.86
2019-03-18T23:14:17.631Z,99103.68
2019-03-18T23:16:45.832Z,99098.52
2019-03-18T23:19:14.808Z,99105.09
2019-03-18T23:21:42.785Z,99095.87
2019-03-18T23:24:10.819Z,99101.68
2019-03-18T23:26:38.838Z,99110.34
2019-03-18T23:29:07.654Z,99110.13
2019-03-18T23:31:35.792Z,99108.95
2019-03-18T23:34:04.992Z,99099.01
2019-03-18T23:36:33.162Z,99096.59
2019-03-18T23:39:01.938Z,99105.56
2019-03-18T23:41:30.426Z,99098.39
2019-03-18T23:43:58.579Z,99105.88
2019-03-18T23:46:26.611Z,99107.24
2019-03-18T23:48:54.893Z,99112.39
2019-03-18T23:51:24.732Z,99110.75
2019-03-18T23:53:54.092Z,99113.98
2019-03-18T23:56:25.260Z,99111.57
2019-03-18T23:58:54.069Z,99110.81
